Time;durP1;ratioP1;P1;durP2;ratioP2;P2;SDS_P1;SDS_P2;PMS_P1;PMS_P2;Temp;Humidity;BMP_temperature;BMP_pressure;BME280_temperature;BME280_humidity;BME280_pressure;Samples;Min_cycle;Max_cycle;Signal;HPM_P1;HPM_P2
2023/11/05 00:01:36;;;;;;;20.98;3.58;;;;;;;8.49;100.00;97012.16;5042291;28;20037;-70
2023/11/05 00:04:03;;;;;;;21.17;3.65;;;;;;;8.48;100.00;97002.59;5045001;28;20439;-72
2023/11/05 00:06:31;;;;;;;20.33;3.70;;;;;;;8.48;100.00;97006.06;5043235;28;20056;-72
2023/11/05 00:08:56;;;;;;;19.75;3.88;;;;;;;8.54;100.00;97012.81;5043911;28;20041;-70
2023/11/05 00:11:21;;;;;;;22.45;3.90;;;;;;;8.54;100.00;96997.88;5044490;28;20025;-72
2023/11/05 00:13:46;;;;;;;22.42;3.75;;;;;;;8.56;100.00;97008.31;5042340;28;20117;-72
2023/11/05 00:16:12;;;;;;;19.25;3.45;;;;;;;8.55;100.00;97002.22;5045733;28;20039;-72
2023/11/05 00:18:38;;;;;;;20.40;3.90;;;;;;;8.52;100.00;97006.78;5037870;28;20030;-72
2023/11/05 00:21:03;;;;;;;20.83;3.67;;;;;;;8.44;100.00;96998.38;5044613;28;20427;-66
2023/11/05 00:23:30;;;;;;;19.85;3.67;;;;;;;8.37;100.00;96996.03;5043104;28;20060;-67
2023/11/05 00:25:55;;;;;;;20.88;3.70;;;;;;;8.22;100.00;97004.66;5043413;28;20026;-67
2023/11/05 00:28:20;;;;;;;20.42;3.55;;;;;;;8.13;100.00;97000.66;5044021;28;20108;-67
2023/11/05 00:30:46;;;;;;;21.33;3.70;;;;;;;8.11;100.00;97001.66;5042168;28;20060;-66
2023/11/05 00:33:11;;;;;;;20.50;3.60;;;;;;;8.05;100.00;96997.53;5045058;28;20135;-66
2023/11/05 00:35:37;;;;;;;22.05;4.05;;;;;;;7.96;100.00;96998.81;5041861;28;20067;-65
2023/11/05 00:38:03;;;;;;;21.40;4.10;;;;;;;7.89;100.00;96994.75;5044198;28;20037;-66
2023/11/05 00:40:29;;;;;;;20.92;3.65;;;;;;;7.85;100.00;96993.22;5042783;28;20025;-65
2023/11/05 00:42:54;;;;;;;20.08;3.78;;;;;;;7.83;100.00;96995.03;5042253;28;20040;-66
2023/11/05 00:45:19;;;;;;;20.55;3.65;;;;;;;7.78;100.00;96984.75;5043129;28;20036;-65
2023/11/05 00:47:45;;;;;;;20.88;3.95;;;;;;;7.76;100.00;96983.09;5041674;28;20584;-66
2023/11/05 00:50:10;;;;;;;21.73;3.90;;;;;;;7.75;100.00;96984.03;5045222;28;20033;-66
2023/11/05 00:52:35;;;;;;;21.88;3.60;;;;;;;7.75;100.00;96981.41;5041815;28;20033;-65
2023/11/05 00:55:01;;;;;;;21.85;3.95;;;;;;;7.74;100.00;96979.69;5043538;28;20025;-66
2023/11/05 00:57:26;;;;;;;22.45;4.00;;;;;;;7.75;100.00;96979.63;5043219;28;20050;-66
2023/11/05 00:59:51;;;;;;;21.35;3.33;;;;;;;7.79;100.00;96975.06;5042351;28;20380;-65
2023/11/05 01:02:17;;;;;;;20.77;3.58;;;;;;;7.82;100.00;96975.78;5043995;28;20044;-65
2023/11/05 01:04:43;;;;;;;20.95;3.60;;;;;;;7.87;100.00;96972.09;5041400;28;20029;-71
2023/11/05 01:07:09;;;;;;;22.35;4.53;;;;;;;7.93;100.00;96977.91;5044921;28;20025;-70
2023/11/05 01:09:34;;;;;;;18.42;3.30;;;;;;;7.89;100.00;96973.72;5041419;28;20037;-71
2023/11/05 01:11:59;;;;;;;21.67;3.55;;;;;;;7.85;100.00;96975.66;5043322;28;20065;-71
2023/11/05 01:14:25;;;;;;;22.77;3.78;;;;;;;7.82;100.00;96967.91;5043077;28;20029;-71
2023/11/05 01:16:50;;;;;;;21.25;3.78;;;;;;;7.81;100.00;96967.97;5042076;28;20029;-71
2023/11/05 01:19:16;;;;;;;22.52;3.80;;;;;;;7.77;100.00;96967.25;5044249;28;20025;-71
2023/11/05 01:21:41;;;;;;;24.83;4.20;;;;;;;7.77;100.00;96963.78;5039562;28;20094;-71
2023/11/05 01:24:07;;;;;;;22.42;3.75;;;;;;;7.76;100.00;96962.06;5043956;28;20040;-70
2023/11/05 01:26:33;;;;;;;24.58;4.10;;;;;;;7.74;100.00;96961.31;5041701;28;20032;-71
2023/11/05 01:29:00;;;;;;;22.73;3.95;;;;;;;7.74;100.00;96964.78;5042637;28;20029;-71
2023/11/05 01:31:25;;;;;;;22.33;3.90;;;;;;;7.73;100.00;96955.16;5042560;28;20041;-67
2023/11/05 01:33:51;;;;;;;21.17;3.90;;;;;;;7.73;100.00;96957.78;5042023;28;20037;-70
2023/11/05 01:36:16;;;;;;;21.88;3.70;;;;;;;7.74;100.00;96956.03;5043777;28;20111;-71
2023/11/05 01:38:41;;;;;;;23.17;4.10;;;;;;;7.72;100.00;96950.84;5041417;28;20056;-71
2023/11/05 01:41:07;;;;;;;22.17;3.80;;;;;;;7.72;100.00;96958.75;5043638;28;20037;-71
2023/11/05 01:43:32;;;;;;;22.30;3.85;;;;;;;7.73;100.00;96949.06;5041706;28;20491;-71
2023/11/05 01:45:58;;;;;;;21.30;3.88;;;;;;;7.73;100.00;96951.69;5041582;28;20372;-70
2023/11/05 01:48:24;;;;;;;22.90;3.80;;;;;;;7.73;100.00;96952.53;5042696;28;20033;-70
2023/11/05 01:50:49;;;;;;;22.80;3.60;;;;;;;7.74;100.00;96950.78;5041693;28;20049;-70
2023/11/05 01:53:16;;;;;;;23.63;3.70;;;;;;;7.75;100.00;96936.72;5045336;28;20450;-66
2023/11/05 01:55:41;;;;;;;23.25;3.90;;;;;;;7.74;100.00;96938.47;5044639;28;20473;-67
2023/11/05 01:58:07;;;;;;;23.58;4.00;;;;;;;7.77;100.00;96934.88;5047733;28;20036;-65
2023/11/05 02:00:33;;;;;;;23.77;3.50;;;;;;;7.75;100.00;96931.47;5045506;28;20036;-65
2023/11/05 02:02:59;;;;;;;20.17;3.50;;;;;;;7.75;100.00;96932.31;5046744;28;20040;-66
2023/11/05 02:05:24;;;;;;;22.90;3.63;;;;;;;7.75;100.00;96928.84;5046436;28;20353;-65
2023/11/05 02:07:50;;;;;;;21.65;4.13;;;;;;;7.73;100.00;96915.72;5045441;28;20485;-67
2023/11/05 02:10:15;;;;;;;21.63;3.70;;;;;;;7.73;100.00;96914.88;5047630;28;20112;-66
2023/11/05 02:12:58;;;;;;;20.67;3.67;;;;;;;7.72;100.00;96918.44;5044132;28;20033;-68
2023/11/05 02:15:24;;;;;;;22.08;3.67;;;;;;;7.71;100.00;96917.59;5043601;28;20400;-66
2023/11/05 02:17:49;;;;;;;22.63;3.67;;;;;;;7.71;100.00;96914.97;5046951;28;20065;-66
2023/11/05 02:20:14;;;;;;;20.20;3.60;;;;;;;7.72;100.00;96914.06;5044062;28;20064;-66
2023/11/05 02:22:41;;;;;;;17.13;3.25;;;;;;;7.73;100.00;96917.53;5047728;28;20048;-66
2023/11/05 02:25:06;;;;;;;19.83;3.45;;;;;;;7.72;100.00;96911.41;5044455;28;20464;-66
2023/11/05 02:27:32;;;;;;;20.98;3.35;;;;;;;7.72;100.00;96900.91;5045311;28;20083;-65
2023/11/05 02:29:57;;;;;;;22.00;3.38;;;;;;;7.75;100.00;96903.38;5045583;28;20029;-66
2023/11/05 02:32:22;;;;;;;21.20;3.40;;;;;;;7.77;100.00;96905.94;5045135;28;20041;-66
2023/11/05 02:34:51;;;;;;;20.38;3.50;;;;;;;7.78;100.00;96919.00;5046767;28;20060;-71
2023/11/05 02:37:16;;;;;;;21.38;3.78;;;;;;;7.78;100.00;96912.91;5044235;28;20034;-71
2023/11/05 02:39:41;;;;;;;18.10;3.22;;;;;;;7.79;100.00;96917.22;5047293;28;20384;-70
2023/11/05 02:42:07;;;;;;;22.25;3.60;;;;;;;7.81;100.00;96924.13;5043871;28;20476;-70
2023/11/05 02:44:32;;;;;;;21.88;3.47;;;;;;;7.83;100.00;96914.41;5046357;28;20033;-69
2023/11/05 02:46:58;;;;;;;22.13;3.80;;;;;;;7.84;100.00;96908.19;5045347;28;20029;-71
2023/11/05 02:49:23;;;;;;;21.08;3.35;;;;;;;7.85;100.00;96909.06;5044843;28;20034;-71
2023/11/05 02:51:49;;;;;;;19.85;3.45;;;;;;;7.87;100.00;96914.25;5046618;28;20036;-71
2023/11/05 02:54:15;;;;;;;20.40;3.70;;;;;;;7.87;100.00;96915.09;5043519;28;20399;-70
2023/11/05 02:56:40;;;;;;;19.92;3.35;;;;;;;7.88;100.00;96905.44;5046823;28;20036;-70
2023/11/05 02:59:06;;;;;;;20.38;3.63;;;;;;;7.88;100.00;96908.94;5044170;28;20040;-71
2023/11/05 03:01:34;;;;;;;18.05;3.42;;;;;;;7.91;100.00;96900.03;5045588;28;20519;-71
2023/11/05 03:04:00;;;;;;;18.02;3.50;;;;;;;7.91;100.00;96908.78;5044680;28;20029;-71
2023/11/05 03:06:25;;;;;;;19.42;3.30;;;;;;;7.93;100.00;96899.03;5044333;28;20087;-71
2023/11/05 03:08:51;;;;;;;18.85;3.53;;;;;;;7.95;100.00;96898.94;5045940;28;20029;-71
2023/11/05 03:11:16;;;;;;;18.40;3.30;;;;;;;7.98;100.00;96897.03;5043536;28;20477;-69
2023/11/05 03:13:41;;;;;;;17.33;3.03;;;;;;;8.00;100.00;96902.22;5046434;28;20080;-71
2023/11/05 03:16:11;;;;;;;19.45;3.35;;;;;;;8.00;100.00;96897.81;5043712;28;20100;-71
2023/11/05 03:18:38;;;;;;;18.17;3.20;;;;;;;8.01;100.00;96896.88;5046188;28;20082;-71
2023/11/05 03:21:04;;;;;;;15.88;2.90;;;;;;;8.03;100.00;96892.41;5043744;28;20116;-71
2023/11/05 03:23:29;;;;;;;16.98;3.25;;;;;;;8.02;100.00;96888.09;5044874;28;20044;-71
2023/11/05 03:25:54;;;;;;;16.55;3.20;;;;;;;8.02;100.00;96893.34;5045228;28;20032;-71
2023/11/05 03:28:20;;;;;;;17.15;3.17;;;;;;;8.01;100.00;96891.63;5043393;28;20025;-71
2023/11/05 03:30:45;;;;;;;15.80;3.13;;;;;;;8.01;100.00;96881.09;5046083;28;20045;-71
2023/11/05 03:33:11;;;;;;;14.63;3.05;;;;;;;8.00;100.00;96889.06;5043040;28;20108;-70
2023/11/05 03:35:36;;;;;;;17.55;3.28;;;;;;;8.02;100.00;96890.72;5045603;28;20444;-71
2023/11/05 03:38:01;;;;;;;19.42;3.40;;;;;;;7.98;100.00;96886.53;5043856;28;20086;-71
2023/11/05 03:40:26;;;;;;;17.63;3.00;;;;;;;7.90;100.00;96888.66;5044453;28;20052;-70
2023/11/05 03:42:52;;;;;;;20.63;3.63;;;;;;;7.83;100.00;96889.88;5045058;28;20078;-66
2023/11/05 03:45:17;;;;;;;14.82;3.10;;;;;;;7.76;100.00;96889.31;5042850;28;20104;-67
2023/11/05 03:47:42;;;;;;;17.52;3.33;;;;;;;7.74;100.00;96887.69;5046254;28;20033;-66
2023/11/05 03:50:08;;;;;;;17.23;3.20;;;;;;;7.74;100.00;96898.22;5042743;28;20040;-67
2023/11/05 03:52:34;;;;;;;16.40;3.05;;;;;;;7.73;100.00;96897.34;5045094;28;20037;-66
2023/11/05 03:54:59;;;;;;;16.70;3.10;;;;;;;7.76;100.00;96893.72;5043918;28;20036;-66
2023/11/05 03:57:24;;;;;;;18.67;3.53;;;;;;;7.79;100.00;96898.81;5043633;28;20512;-66
2023/11/05 03:59:50;;;;;;;17.92;3.22;;;;;;;7.84;100.00;96902.09;5045204;28;20036;-67
2023/11/05 04:02:15;;;;;;;18.38;3.10;;;;;;;7.85;100.00;96899.41;5042427;28;20087;-66
2023/11/05 04:04:44;;;;;;;16.20;3.35;;;;;;;7.89;100.00;96910.59;5045630;28;20025;-66
2023/11/05 04:07:10;;;;;;;16.20;3.00;;;;;;;7.91;100.00;96898.25;5042420;28;20028;-66
2023/11/05 04:09:35;;;;;;;17.25;3.30;;;;;;;7.93;100.00;96900.81;5045093;28;20361;-66
2023/11/05 04:12:00;;;;;;;19.30;3.60;;;;;;;7.95;100.00;96912.09;5043438;28;20033;-66
2023/11/05 04:14:26;;;;;;;18.45;3.80;;;;;;;7.93;100.00;96912.19;5043631;28;20498;-66
2023/11/05 04:16:52;;;;;;;18.42;3.92;;;;;;;7.92;100.00;96905.22;5044495;28;20036;-66
2023/11/05 04:19:17;;;;;;;18.65;3.50;;;;;;;7.93;100.00;96908.69;5041015;28;20021;-66
2023/11/05 04:21:43;;;;;;;19.58;3.33;;;;;;;7.94;100.00;96906.00;5045501;28;20040;-66
2023/11/05 04:24:08;;;;;;;17.23;3.47;;;;;;;7.95;100.00;96910.34;5042164;28;20037;-66
2023/11/05 04:26:33;;;;;;;18.67;3.50;;;;;;;7.96;100.00;96909.41;5044332;28;20464;-66
2023/11/05 04:28:59;;;;;;;16.85;3.40;;;;;;;7.96;100.00;96909.41;5043340;28;20067;-65
2023/11/05 04:31:24;;;;;;;16.60;3.40;;;;;;;7.99;100.00;96908.41;5042693;28;20045;-66
2023/11/05 04:33:51;;;;;;;15.35;3.50;;;;;;;7.99;100.00;96906.66;5044685;28;20036;-66
2023/11/05 04:36:16;;;;;;;18.52;3.40;;;;;;;7.98;100.00;96904.94;5042155;28;20030;-66
2023/11/05 04:38:42;;;;;;;19.05;3.55;;;;;;;8.03;100.00;96904.72;5045106;28;20025;-66
2023/11/05 04:41:07;;;;;;;20.58;3.60;;;;;;;8.06;100.00;96904.56;5042339;28;20077;-66
2023/11/05 04:43:33;;;;;;;17.52;3.42;;;;;;;8.08;100.00;96901.84;5043899;28;20030;-65
2023/11/05 04:45:59;;;;;;;19.70;3.80;;;;;;;8.08;100.00;96901.84;5042983;28;20027;-66
2023/11/05 04:48:25;;;;;;;17.20;3.60;;;;;;;8.11;100.00;96907.84;5042917;28;20124;-66
2023/11/05 04:50:50;;;;;;;19.27;3.88;;;;;;;8.10;100.00;96910.53;5044164;28;20115;-65
2023/11/05 04:53:15;;;;;;;16.38;3.60;;;;;;;8.08;100.00;96907.13;5041376;28;20025;-70
2023/11/05 04:55:41;;;;;;;16.85;3.60;;;;;;;8.09;100.00;96909.66;5045273;28;20028;-70
2023/11/05 04:58:06;;;;;;;18.35;3.92;;;;;;;8.10;100.00;96905.28;5041942;28;20117;-68
2023/11/05 05:00:31;;;;;;;19.13;3.88;;;;;;;8.10;100.00;96914.00;5043125;28;20476;-71
2023/11/05 05:02:57;;;;;;;17.70;3.80;;;;;;;8.09;100.00;96914.09;5043182;28;20415;-69
2023/11/05 05:05:22;;;;;;;18.95;3.58;;;;;;;8.09;100.00;96912.28;5041851;28;20021;-70
2023/11/05 05:07:47;;;;;;;18.98;3.97;;;;;;;8.07;100.00;96911.53;5044411;28;20117;-71
2023/11/05 05:10:13;;;;;;;18.42;3.70;;;;;;;8.08;100.00;96921.13;5041348;28;20088;-70
2023/11/05 05:12:38;;;;;;;18.77;3.95;;;;;;;8.07;100.00;96919.41;5044005;28;20108;-71
2023/11/05 05:15:05;;;;;;;17.13;3.95;;;;;;;8.11;100.00;96928.88;5042150;28;20036;-71
2023/11/05 05:17:31;;;;;;;19.35;4.20;;;;;;;8.13;100.00;96920.91;5043098;28;20036;-71
2023/11/05 05:19:57;;;;;;;20.52;4.30;;;;;;;8.12;100.00;96920.03;5042875;28;20380;-71
2023/11/05 05:22:22;;;;;;;18.08;4.28;;;;;;;8.15;100.00;96924.31;5041860;28;20041;-71
2023/11/05 05:24:48;;;;;;;18.67;4.25;;;;;;;8.15;100.00;96925.16;5044077;28;20597;-71
2023/11/05 05:27:13;;;;;;;18.48;4.55;;;;;;;8.15;100.00;96932.19;5040608;28;20112;-70
2023/11/05 05:29:39;;;;;;;20.42;4.40;;;;;;;8.14;100.00;96934.00;5043798;28;20171;-71
2023/11/05 05:32:05;;;;;;;15.93;3.95;;;;;;;8.18;100.00;96937.31;5041397;28;20080;-71
2023/11/05 05:34:30;;;;;;;18.65;4.45;;;;;;;8.15;100.00;96933.03;5042582;28;20481;-71
2023/11/05 05:36:55;;;;;;;18.40;4.30;;;;;;;8.17;100.00;96940.88;5042974;28;20040;-66
2023/11/05 05:39:21;;;;;;;16.63;4.00;;;;;;;8.19;100.00;96945.13;5041468;28;20500;-66
2023/11/05 05:41:47;;;;;;;17.73;4.30;;;;;;;8.22;100.00;96949.41;5044014;28;20035;-65
2023/11/05 05:44:12;;;;;;;17.58;4.00;;;;;;;8.21;100.00;96947.69;5040913;28;20117;-66
2023/11/05 05:46:37;;;;;;;19.13;4.10;;;;;;;8.24;100.00;96955.41;5043651;28;20134;-66
2023/11/05 05:49:03;;;;;;;15.75;4.05;;;;;;;8.24;100.00;96958.06;5041629;28;20067;-67
2023/11/05 05:51:28;;;;;;;18.25;4.00;;;;;;;8.26;100.00;96966.75;5042402;28;20029;-65
2023/11/05 05:53:55;;;;;;;19.60;4.40;;;;;;;8.27;100.00;96955.31;5043055;28;20021;-65
2023/11/05 05:56:21;;;;;;;18.38;4.30;;;;;;;8.27;100.00;96963.19;5041107;28;20358;-67
2023/11/05 05:58:46;;;;;;;21.15;4.65;;;;;;;8.27;100.00;96968.47;5044223;28;20083;-66
2023/11/05 06:01:11;;;;;;;17.65;4.20;;;;;;;8.29;100.00;96963.13;5036623;28;20076;-66
2023/11/05 06:03:37;;;;;;;19.50;4.32;;;;;;;8.27;100.00;96965.81;5042117;28;20036;-65
2023/11/05 06:06:02;;;;;;;17.00;4.18;;;;;;;8.26;100.00;96969.38;5041780;28;20037;-66
2023/11/05 06:08:28;;;;;;;19.48;4.38;;;;;;;8.24;100.00;96970.38;5042010;28;20049;-66
2023/11/05 06:10:53;;;;;;;17.25;4.20;;;;;;;8.24;100.00;96971.22;5043076;28;20029;-66
2023/11/05 06:13:20;;;;;;;17.25;3.97;;;;;;;8.25;100.00;96972.94;5040767;28;20025;-66
2023/11/05 06:15:48;;;;;;;20.02;4.07;;;;;;;8.22;100.00;96970.44;5043868;28;20065;-66
2023/11/05 06:18:14;;;;;;;19.25;4.20;;;;;;;8.24;100.00;96979.09;5036740;28;20526;-66
2023/11/05 06:20:40;;;;;;;18.80;4.05;;;;;;;8.22;100.00;96975.72;5043258;28;20033;-71
2023/11/05 06:23:05;;;;;;;19.40;4.68;;;;;;;8.26;100.00;96981.69;5041232;28;20025;-70
2023/11/05 06:25:30;;;;;;;21.17;4.85;;;;;;;8.23;100.00;96980.06;5042303;28;20420;-70
2023/11/05 06:27:56;;;;;;;18.52;4.47;;;;;;;8.23;100.00;96981.81;5042341;28;20040;-70
2023/11/05 06:30:21;;;;;;;20.55;4.63;;;;;;;8.22;100.00;96988.03;5040669;28;20045;-71
2023/11/05 06:32:47;;;;;;;22.83;5.00;;;;;;;8.20;100.00;96986.31;5043847;28;20036;-70
2023/11/05 06:35:12;;;;;;;23.83;5.00;;;;;;;8.20;100.00;96986.31;5036040;28;20036;-70
2023/11/05 06:37:37;;;;;;;20.23;4.85;;;;;;;8.21;100.00;96997.66;5042888;28;20414;-70
2023/11/05 06:40:04;;;;;;;20.35;4.70;;;;;;;8.22;100.00;97003.81;5042640;28;20430;-69
2023/11/05 06:42:30;;;;;;;21.90;4.97;;;;;;;8.19;100.00;96996.91;5045726;28;20045;-70
2023/11/05 06:44:55;;;;;;;23.77;5.28;;;;;;;8.20;100.00;97009.13;5046018;28;20450;-69
2023/11/05 06:47:21;;;;;;;20.58;4.88;;;;;;;8.22;100.00;97019.59;5044344;28;20034;-71
2023/11/05 06:49:46;;;;;;;21.55;4.93;;;;;;;8.21;100.00;97023.97;5047016;28;20107;-71
2023/11/05 06:52:12;;;;;;;20.77;4.55;;;;;;;8.21;100.00;97023.97;5043740;28;20087;-70
2023/11/05 06:54:39;;;;;;;20.15;4.78;;;;;;;8.19;100.00;97031.09;5046417;28;20472;-70
2023/11/05 06:57:05;;;;;;;24.10;4.97;;;;;;;8.22;100.00;97030.13;5044497;28;20036;-70
2023/11/05 06:59:30;;;;;;;22.15;4.88;;;;;;;8.24;100.00;97036.16;5045746;28;20029;-70
2023/11/05 07:01:56;;;;;;;21.15;4.63;;;;;;;8.26;100.00;97042.22;5045789;28;20033;-70
2023/11/05 07:04:21;;;;;;;22.23;5.18;;;;;;;8.28;100.00;97041.19;5043784;28;20043;-70
2023/11/05 07:06:47;;;;;;;21.65;5.10;;;;;;;8.30;100.00;97044.63;5046945;28;20025;-69
2023/11/05 07:09:12;;;;;;;21.15;4.85;;;;;;;8.32;100.00;97057.69;5039272;28;20522;-71
2023/11/05 07:11:38;;;;;;;22.42;5.82;;;;;;;8.35;100.00;97050.50;5046006;28;20032;-71
2023/11/05 07:14:03;;;;;;;21.67;4.78;;;;;;;8.38;100.00;97057.41;5044594;28;20052;-70
2023/11/05 07:16:29;;;;;;;22.48;4.88;;;;;;;8.41;100.00;97061.69;5044939;28;20159;-71
2023/11/05 07:18:54;;;;;;;21.42;4.80;;;;;;;8.42;100.00;97064.25;5045797;28;20025;-71
2023/11/05 07:21:19;;;;;;;19.83;4.40;;;;;;;8.46;100.00;97068.47;5043358;28;20025;-71
2023/11/05 07:23:47;;;;;;;21.60;4.35;;;;;;;8.50;100.00;97075.31;5046449;28;20604;-70
2023/11/05 07:26:12;;;;;;;21.27;4.80;;;;;;;8.51;100.00;97084.03;5043072;28;20072;-70
2023/11/05 07:28:38;;;;;;;20.83;4.65;;;;;;;8.51;100.00;97084.88;5045810;28;20033;-70
2023/11/05 07:31:04;;;;;;;24.00;5.18;;;;;;;8.50;100.00;97077.94;5043911;28;20080;-70
2023/11/05 07:33:29;;;;;;;19.42;4.55;;;;;;;8.52;100.00;97088.38;5044687;28;20065;-71
2023/11/05 07:35:54;;;;;;;22.45;5.13;;;;;;;8.54;100.00;97089.16;5045072;28;20021;-70
2023/11/05 07:38:21;;;;;;;21.33;4.57;;;;;;;8.56;100.00;97095.19;5043027;28;20026;-70
2023/11/05 07:40:47;;;;;;;22.88;5.30;;;;;;;8.60;100.00;97101.19;5046490;28;20384;-70
2023/11/05 07:43:12;;;;;;;23.45;5.03;;;;;;;8.61;100.00;97110.78;5042657;28;20040;-70
2023/11/05 07:45:38;;;;;;;21.30;4.85;;;;;;;8.61;100.00;97103.75;5045359;28;20048;-70
2023/11/05 07:48:03;;;;;;;20.45;5.07;;;;;;;8.60;100.00;97114.34;5043956;28;20060;-70
2023/11/05 07:50:29;;;;;;;22.98;5.35;;;;;;;8.62;100.00;97116.00;5043763;28;20033;-71
2023/11/05 07:52:54;;;;;;;21.88;5.07;;;;;;;8.64;100.00;97124.66;5044763;28;20072;-71
2023/11/05 07:55:20;;;;;;;20.77;4.78;;;;;;;8.65;100.00;97120.22;5041814;28;20033;-71
2023/11/05 07:57:45;;;;;;;22.60;5.25;;;;;;;8.65;100.00;97128.13;5042502;28;20033;-71
2023/11/05 08:00:15;;;;;;;23.95;5.32;;;;;;;8.72;100.00;97134.81;5045420;28;20029;-70
2023/11/05 08:02:41;;;;;;;21.73;5.28;;;;;;;8.78;100.00;97133.69;5043165;28;20079;-70
2023/11/05 08:05:08;;;;;;;22.92;5.55;;;;;;;8.88;100.00;97142.84;5044817;28;20029;-71
2023/11/05 08:07:33;;;;;;;22.95;5.13;;;;;;;8.97;100.00;97152.09;5043366;28;20463;-65
2023/11/05 08:09:59;;;;;;;21.83;5.50;;;;;;;9.01;100.00;97154.53;5043891;28;20057;-64
2023/11/05 08:12:24;;;;;;;19.15;4.90;;;;;;;9.10;100.00;97160.25;5044793;28;20507;-65
2023/11/05 08:14:50;;;;;;;20.85;4.97;;;;;;;9.08;100.00;97155.91;5042526;28;20037;-65
2023/11/05 08:17:15;;;;;;;20.17;5.00;;;;;;;9.13;100.00;97168.03;5045699;28;20036;-66
2023/11/05 08:19:41;;;;;;;22.10;5.10;;;;;;;9.19;100.00;97170.38;5042198;28;20038;-65
2023/11/05 08:22:06;;;;;;;18.95;5.05;;;;;;;9.20;100.00;97175.56;5044369;28;20021;-66
2023/11/05 08:24:33;;;;;;;19.40;4.28;;;;;;;9.13;100.00;97176.78;5043721;28;20029;-66
2023/11/05 08:26:58;;;;;;;20.15;4.53;;;;;;;9.10;100.00;97181.34;5043532;28;20136;-65
2023/11/05 08:29:24;;;;;;;20.38;4.40;;;;;;;9.10;100.00;97176.06;5044551;28;20026;-65
2023/11/05 08:31:49;;;;;;;22.73;4.88;;;;;;;9.08;100.00;97190.16;5041785;28;20057;-65
2023/11/05 08:34:14;;;;;;;20.45;4.38;;;;;;;9.05;100.00;97190.31;5045253;28;20387;-64
2023/11/05 08:36:40;;;;;;;19.52;4.20;;;;;;;9.10;100.00;97194.53;5042224;28;20079;-65
2023/11/05 08:39:06;;;;;;;20.58;4.50;;;;;;;9.12;100.00;97195.31;5043806;28;20063;-66
2023/11/05 08:41:31;;;;;;;19.90;4.70;;;;;;;9.18;100.00;97211.66;5043396;28;20429;-64
2023/11/05 08:43:57;;;;;;;20.40;4.32;;;;;;;9.23;100.00;97219.34;5042848;28;20113;-65
2023/11/05 08:46:23;;;;;;;19.90;4.43;;;;;;;9.21;100.00;97221.22;5044434;28;20037;-64
2023/11/05 08:48:48;;;;;;;17.55;4.00;;;;;;;9.20;100.00;97224.78;5041471;28;20473;-66
2023/11/05 08:51:23;;;;;;;21.70;4.75;;;;;;;9.22;100.00;97226.41;5037563;28;20040;-65
2023/11/05 08:53:49;;;;;;;19.27;4.55;;;;;;;9.28;100.00;97230.53;5037888;28;20490;-65
2023/11/05 08:56:14;;;;;;;19.15;4.57;;;;;;;9.32;100.00;97229.47;5044805;28;20029;-64
2023/11/05 08:58:40;;;;;;;18.30;4.10;;;;;;;9.33;100.00;97246.13;5042096;28;20116;-65
2023/11/05 09:01:06;;;;;;;18.02;4.25;;;;;;;9.30;100.00;97241.84;5043513;28;20490;-66
2023/11/05 09:03:32;;;;;;;20.58;4.07;;;;;;;9.30;100.00;97244.50;5042150;28;20025;-66
2023/11/05 09:05:58;;;;;;;20.58;4.50;;;;;;;9.32;100.00;97261.09;5042515;28;20112;-65
2023/11/05 09:08:24;;;;;;;17.48;4.20;;;;;;;9.31;100.00;97259.38;5043651;28;20472;-65
2023/11/05 09:10:50;;;;;;;20.50;4.63;;;;;;;9.29;100.00;97261.25;5041167;28;20100;-65
2023/11/05 09:13:15;;;;;;;19.45;4.75;;;;;;;9.28;100.00;97269.22;5044735;28;20029;-66
2023/11/05 09:15:40;;;;;;;20.83;4.80;;;;;;;9.25;100.00;97259.69;5041773;28;20112;-66
2023/11/05 09:18:06;;;;;;;20.13;4.43;;;;;;;9.15;100.00;97253.13;5043441;28;20033;-65
2023/11/05 09:20:31;;;;;;;17.17;4.45;;;;;;;9.17;100.00;97282.91;5042848;28;20468;-65
2023/11/05 09:22:57;;;;;;;20.40;4.90;;;;;;;9.20;100.00;97282.75;5041889;28;20028;-65
2023/11/05 09:25:22;;;;;;;20.33;4.75;;;;;;;9.25;100.00;97293.94;5043785;28;20041;-66
2023/11/05 09:27:47;;;;;;;18.27;4.70;;;;;;;9.36;100.00;97296.06;5040937;28;20504;-66
2023/11/05 09:30:14;;;;;;;17.70;4.78;;;;;;;9.47;100.00;97301.69;5044184;28;20037;-65
2023/11/05 09:32:43;;;;;;;18.67;4.63;;;;;;;9.52;100.00;97299.69;5041532;28;20064;-70
2023/11/05 09:35:12;;;;;;;19.05;4.60;;;;;;;9.39;100.00;97304.69;5044130;28;20049;-71
2023/11/05 09:37:44;;;;;;;17.13;4.85;;;;;;;9.33;100.00;97315.50;5041611;28;20025;-70
2023/11/05 09:40:15;;;;;;;20.95;5.70;;;;;;;9.22;100.00;97318.66;5043304;28;20040;-71
2023/11/05 09:42:58;;;;;;;20.42;5.75;;;;;;;9.17;100.00;97325.91;5041326;28;20033;-70
2023/11/05 09:45:26;;;;;;;20.60;6.00;;;;;;;9.18;100.00;97337.31;5038771;28;20519;-70
2023/11/05 09:47:53;;;;;;;20.75;5.82;;;;;;;9.19;100.00;97349.56;5043758;28;20111;-71
2023/11/05 09:50:18;;;;;;;20.05;6.60;;;;;;;9.18;100.00;97337.31;5040683;28;20758;-70
2023/11/05 09:52:44;;;;;;;20.95;6.50;;;;;;;9.14;100.00;97356.81;5044476;28;20052;-71
2023/11/05 09:55:10;;;;;;;22.40;6.82;;;;;;;9.11;100.00;97363.06;5041577;28;20033;-70
2023/11/05 09:57:36;;;;;;;19.98;6.57;;;;;;;9.17;100.00;97356.69;5042638;28;20087;-71
2023/11/05 10:00:04;;;;;;;22.67;7.82;;;;;;;9.24;100.00;97379.19;5042508;28;20021;-71
2023/11/05 10:02:52;;;;;;;20.50;7.38;;;;;;;9.31;100.00;97390.31;5041783;28;20068;-71
2023/11/05 10:05:17;;;;;;;20.77;7.55;;;;;;;9.42;100.00;97404.72;5036780;28;20037;-71
2023/11/05 10:07:42;;;;;;;21.50;8.15;;;;;;;9.49;100.00;97404.44;5043682;28;20029;-71
2023/11/05 10:10:08;;;;;;;21.85;8.57;;;;;;;9.45;100.00;97409.00;5041539;28;20040;-71
2023/11/05 10:12:34;;;;;;;21.10;8.15;;;;;;;9.35;100.00;97405.94;5042318;28;20392;-71
2023/11/05 10:14:59;;;;;;;21.23;8.20;;;;;;;9.31;100.00;97449.16;5045089;28;20025;-71
2023/11/05 10:17:25;;;;;;;22.75;8.55;;;;;;;9.23;100.00;97427.56;5045224;28;20102;-70
2023/11/05 10:19:50;;;;;;;22.25;8.50;;;;;;;9.17;100.00;97441.00;5047483;28;20025;-70
2023/11/05 10:22:15;;;;;;;21.00;8.88;;;;;;;9.13;100.00;97450.84;5044229;28;20393;-71
2023/11/05 10:24:41;;;;;;;22.25;9.30;;;;;;;9.07;100.00;97467.78;5047277;28;20028;-70
2023/11/05 10:27:08;;;;;;;21.88;9.20;;;;;;;9.01;100.00;97482.97;5045277;28;20033;-72
2023/11/05 10:29:34;;;;;;;25.48;10.52;;;;;;;8.93;100.00;97482.44;5045972;28;20037;-71
2023/11/05 10:32:00;;;;;;;24.27;9.77;;;;;;;8.93;100.00;97495.59;5046233;28;20053;-72
2023/11/05 10:34:26;;;;;;;23.73;9.70;;;;;;;8.88;100.00;97501.06;5044789;28;20038;-70
2023/11/05 10:36:52;;;;;;;24.00;10.43;;;;;;;8.85;100.00;97504.72;5047329;28;20467;-72
2023/11/05 10:39:17;;;;;;;26.17;11.23;;;;;;;8.87;100.00;97520.44;5044175;28;20026;-72
2023/11/05 10:41:43;;;;;;;25.13;11.18;;;;;;;8.85;100.00;97532.81;5046966;28;20492;-73
2023/11/05 10:44:11;;;;;;;24.70;11.48;;;;;;;8.90;100.00;97528.22;5044896;28;20024;-73
2023/11/05 10:46:37;;;;;;;25.95;12.27;;;;;;;8.93;100.00;97540.38;5046333;28;20052;-73
2023/11/05 10:49:03;;;;;;;28.08;13.43;;;;;;;8.91;100.00;97548.34;5045432;28;20033;-72
2023/11/05 10:51:30;;;;;;;28.08;14.10;;;;;;;8.96;100.00;97550.81;5045110;28;20041;-73
2023/11/05 10:53:56;;;;;;;29.45;15.35;;;;;;;8.92;100.00;97563.25;5046750;28;20439;-73
2023/11/05 10:56:32;;;;;;;29.40;14.52;;;;;;;8.96;100.00;97562.22;5044056;28;20113;-71
2023/11/05 10:58:58;;;;;;;29.73;16.00;;;;;;;8.97;100.00;97576.22;5045959;28;20145;-71
2023/11/05 11:01:29;;;;;;;29.17;14.77;;;;;;;9.09;100.00;97575.72;5044165;28;20021;-73
2023/11/05 11:04:10;;;;;;;28.00;13.27;;;;;;;9.15;100.00;97590.44;5046282;28;20032;-71
2023/11/05 11:06:39;;;;;;;28.48;13.82;;;;;;;9.12;100.00;97595.84;5045557;28;20461;-74
2023/11/05 11:09:20;;;;;;;28.08;13.57;;;;;;;9.14;100.00;97607.16;5044829;28;20032;-73
2023/11/05 11:11:46;;;;;;;28.65;13.57;;;;;;;9.05;100.00;97613.66;5039425;28;20025;-73
2023/11/05 11:14:12;;;;;;;27.85;13.52;;;;;;;9.04;100.00;97627.75;5046431;28;20380;-73
2023/11/05 11:16:40;;;;;;;28.67;12.77;;;;;;;9.02;100.00;97621.69;5044156;28;20039;-71
2023/11/05 11:19:14;;;;;;;29.45;14.05;;;;;;;9.04;100.00;97641.81;5045340;28;20030;-73